createdAt,value
2023-03-04T00:00:08.768Z,3.13
2023-03-04T00:02:39.693Z,4.15
2023-03-04T00:05:08.682Z,3.95
2023-03-04T00:07:37.844Z,4.15
2023-03-04T00:10:06.694Z,4.25
2023-03-04T00:12:34.507Z,3.15
2023-03-04T00:15:02.553Z,4.20
2023-03-04T00:17:31.777Z,3.13
2023-03-04T00:19:59.956Z,4.35
2023-03-04T00:22:27.923Z,3.10
2023-03-04T00:24:57.237Z,4.10
2023-03-04T00:27:25.098Z,2.90
2023-03-04T00:29:53.158Z,3.00
2023-03-04T00:32:21.476Z,2.72
2023-03-04T00:34:49.796Z,2.47
2023-03-04T00:37:17.987Z,2.88
2023-03-04T00:39:45.902Z,3.35
2023-03-04T00:42:15.340Z,2.83
2023-03-04T00:44:43.517Z,2.63
2023-03-04T00:47:11.517Z,2.95
2023-03-04T00:49:39.602Z,2.35
2023-03-04T00:52:08.127Z,2.95
2023-03-04T00:54:36.024Z,2.53
2023-03-04T00:57:04.282Z,2.50
2023-03-04T00:59:34.321Z,3.03
2023-03-04T01:02:02.558Z,2.65
2023-03-04T01:04:31.578Z,2.90
2023-03-04T01:07:00.919Z,2.78
2023-03-04T01:09:30.173Z,2.85
2023-03-04T01:11:58.381Z,2.95
2023-03-04T01:14:26.634Z,2.47
2023-03-04T01:16:56.103Z,3.13
2023-03-04T01:19:24.642Z,2.88
2023-03-04T01:21:53.582Z,2.97
2023-03-04T01:24:23.255Z,2.13
2023-03-04T01:26:51.215Z,2.85
2023-03-04T01:29:19.238Z,3.47
2023-03-04T01:31:47.069Z,2.55
2023-03-04T01:34:18.116Z,2.58
2023-03-04T01:36:46.269Z,3.03
2023-03-04T01:39:14.148Z,3.08
2023-03-04T01:41:42.654Z,2.45
2023-03-04T01:44:11.383Z,2.85
2023-03-04T01:46:39.747Z,2.97
2023-03-04T01:49:11.628Z,2.97
2023-03-04T01:51:41.275Z,3.03
2023-03-04T01:54:10.278Z,3.13
2023-03-04T01:56:40.016Z,3.00
2023-03-04T01:59:10.446Z,3.47
2023-03-04T02:01:39.772Z,2.50
2023-03-04T02:04:09.059Z,2.75
2023-03-04T02:06:37.833Z,2.75
2023-03-04T02:09:07.977Z,2.30
2023-03-04T02:11:37.283Z,2.50
2023-03-04T02:14:06.075Z,3.97
2023-03-04T02:16:34.418Z,2.25
2023-03-04T02:19:02.632Z,2.67
2023-03-04T02:21:32.587Z,2.63
2023-03-04T02:24:08.293Z,2.55
2023-03-04T02:26:39.842Z,2.55
2023-03-04T02:29:08.050Z,2.83
2023-03-04T02:31:38.049Z,2.70
2023-03-04T02:34:08.177Z,2.85
2023-03-04T02:36:36.274Z,2.35
2023-03-04T02:39:07.176Z,2.42
2023-03-04T02:41:37.171Z,2.85
2023-03-04T02:44:05.393Z,2.25
2023-03-04T02:46:33.539Z,2.53
2023-03-04T02:49:01.684Z,2.30
2023-03-04T02:51:29.795Z,2.70
2023-03-04T02:53:57.760Z,2.50
2023-03-04T02:56:25.968Z,2.03
2023-03-04T02:58:55.174Z,2.33
2023-03-04T03:01:23.323Z,3.05
2023-03-04T03:03:51.540Z,2.22
2023-03-04T03:06:19.920Z,2.72
2023-03-04T03:08:47.851Z,2.88
2023-03-04T03:11:15.829Z,2.58
2023-03-04T03:13:47.127Z,2.65
2023-03-04T03:16:17.054Z,2.83
2023-03-04T03:18:45.040Z,2.90
2023-03-04T03:21:13.039Z,2.38
2023-03-04T03:23:41.471Z,2.55
2023-03-04T03:26:09.461Z,2.15
2023-03-04T03:28:37.988Z,2.55
2023-03-04T03:31:06.418Z,2.38
2023-03-04T03:33:35.952Z,2.65
2023-03-04T03:36:04.544Z,2.80
2023-03-04T03:38:33.866Z,2.20
2023-03-04T03:41:01.938Z,2.17
2023-03-04T03:43:29.782Z,2.10
2023-03-04T03:45:57.737Z,2.35
2023-03-04T03:48:25.669Z,2.10
2023-03-04T03:50:55.016Z,2.20
2023-03-04T03:53:22.949Z,2.10
2023-03-04T03:55:50.870Z,2.22
2023-03-04T03:58:18.843Z,2.70
2023-03-04T04:00:46.871Z,2.92
2023-03-04T04:03:16.084Z,1.67
2023-03-04T04:05:44.062Z,2.17
2023-03-04T04:08:14.566Z,2.45
2023-03-04T04:10:42.919Z,2.25
2023-03-04T04:13:11.382Z,2.40
2023-03-04T04:15:39.691Z,2.08
2023-03-04T04:18:08.110Z,2.28
2023-03-04T04:20:36.479Z,2.35
2023-03-04T04:23:05.014Z,2.63
2023-03-04T04:25:34.819Z,2.88
2023-03-04T04:28:02.757Z,2.08
2023-03-04T04:30:30.789Z,2.28
2023-03-04T04:33:01.666Z,2.40
2023-03-04T04:35:29.846Z,2.65
2023-03-04T04:37:58.215Z,2.13
2023-03-04T04:40:26.104Z,2.15
2023-03-04T04:42:55.409Z,2.63
2023-03-04T04:45:24.834Z,2.00
2023-03-04T04:47:52.984Z,1.80
2023-03-04T04:50:21.263Z,2.00
2023-03-04T04:52:49.257Z,1.80
2023-03-04T04:55:17.381Z,2.25
2023-03-04T04:57:45.404Z,2.53
2023-03-04T05:00:16.233Z,1.95
2023-03-04T05:02:44.307Z,1.70
2023-03-04T05:05:12.412Z,2.35
2023-03-04T05:07:40.456Z,2.50
2023-03-04T05:10:09.599Z,2.10
2023-03-04T05:12:37.798Z,2.03
2023-03-04T05:15:06.628Z,1.48
2023-03-04T05:17:35.906Z,2.20
2023-03-04T05:20:04.473Z,2.10
2023-03-04T05:22:32.915Z,2.05
2023-03-04T05:25:00.901Z,1.95
2023-03-04T05:27:28.964Z,1.80
2023-03-04T05:30:00.919Z,1.98
2023-03-04T05:32:29.544Z,2.13
2023-03-04T05:34:59.140Z,2.00
2023-03-04T05:37:27.248Z,2.15
2023-03-04T05:39:55.506Z,1.75
2023-03-04T05:42:23.489Z,2.45
2023-03-04T05:44:51.546Z,1.92
2023-03-04T05:47:19.625Z,1.80
2023-03-04T05:49:47.692Z,2.45
2023-03-04T05:52:17.214Z,2.25
2023-03-04T05:54:45.206Z,2.30
2023-03-04T05:57:13.183Z,2.15
2023-03-04T05:59:41.386Z,1.95
2023-03-04T06:02:09.615Z,2.22
2023-03-04T06:04:37.944Z,2.15
2023-03-04T06:07:06.247Z,2.60
2023-03-04T06:09:35.758Z,2.28
2023-03-04T06:12:04.043Z,2.60
2023-03-04T06:14:32.005Z,2.10
2023-03-04T06:16:59.777Z,2.15
2023-03-04T06:19:27.688Z,2.20
2023-03-04T06:21:55.558Z,2.00
2023-03-04T06:24:23.769Z,2.03
2023-03-04T06:26:53.019Z,2.80
2023-03-04T06:29:21.538Z,2.15
2023-03-04T06:31:49.483Z,2.05
2023-03-04T06:34:17.485Z,2.08
2023-03-04T06:36:45.462Z,2.15
2023-03-04T06:39:13.429Z,2.00
2023-03-04T06:41:41.418Z,1.92
2023-03-04T06:44:10.680Z,2.22
2023-03-04T06:46:39.285Z,1.83
2023-03-04T06:49:07.488Z,2.10
2023-03-04T06:51:35.800Z,1.90
2023-03-04T06:54:03.798Z,2.35
2023-03-04T06:56:32.114Z,1.95
2023-03-04T06:59:00.392Z,2.42
2023-03-04T07:01:30.625Z,1.92
2023-03-04T07:03:59.059Z,2.22
2023-03-04T07:06:29.636Z,2.42
2023-03-04T07:08:58.442Z,2.38
2023-03-04T07:11:26.889Z,2.38
2023-03-04T07:13:54.902Z,2.83
2023-03-04T07:16:24.105Z,2.25
2023-03-04T07:18:53.596Z,2.67
2023-03-04T07:21:21.839Z,1.83
2023-03-04T07:23:49.924Z,2.40
2023-03-04T07:26:18.112Z,2.00
2023-03-04T07:28:49.349Z,2.42
2023-03-04T07:31:22.865Z,2.20
2023-03-04T07:33:51.247Z,2.47
2023-03-04T07:36:20.832Z,2.63
2023-03-04T07:38:50.755Z,2.47
2023-03-04T07:41:19.440Z,2.08
2023-03-04T07:43:47.734Z,2.03
2023-03-04T07:46:16.355Z,2.40
2023-03-04T07:48:44.705Z,3.17
2023-03-04T07:51:14.810Z,2.40
2023-03-04T07:53:46.676Z,2.88
2023-03-04T07:56:17.187Z,3.25
2023-03-04T07:58:48.129Z,2.63
2023-03-04T08:01:18.052Z,2.90
2023-03-04T08:03:46.422Z,2.50
2023-03-04T08:06:16.805Z,2.33
2023-03-04T08:08:47.029Z,2.13
2023-03-04T08:11:17.170Z,2.35
2023-03-04T08:13:45.599Z,2.85
2023-03-04T08:16:15.622Z,2.28
2023-03-04T08:18:44.251Z,2.28
2023-03-04T08:21:12.928Z,2.97
2023-03-04T08:23:42.648Z,2.50
2023-03-04T08:26:14.421Z,2.30
2023-03-04T08:28:42.679Z,2.47
2023-03-04T08:31:10.770Z,2.55
2023-03-04T08:33:38.813Z,11.18
2023-03-04T08:36:07.860Z,2.20
2023-03-04T08:38:35.873Z,1.80
2023-03-04T08:41:04.468Z,1.50
2023-03-04T08:43:34.796Z,1.67
2023-03-04T08:46:03.131Z,1.95
2023-03-04T08:48:31.289Z,1.70
2023-03-04T08:50:59.444Z,2.28
2023-03-04T08:53:27.620Z,3.17
2023-03-04T08:55:57.359Z,1.95
2023-03-04T08:58:25.410Z,1.42
2023-03-04T09:00:55.042Z,2.10
2023-03-04T09:03:23.258Z,1.52
2023-03-04T09:05:51.533Z,1.75
2023-03-04T09:08:19.779Z,1.55
2023-03-04T09:10:48.973Z,1.67
2023-03-04T09:13:16.931Z,2.50
2023-03-04T09:15:49.291Z,2.65
2023-03-04T09:18:19.482Z,2.20
2023-03-04T09:20:47.648Z,2.10
2023-03-04T09:23:16.114Z,2.05
2023-03-04T09:25:46.496Z,2.90
2023-03-04T09:28:15.091Z,2.20
2023-03-04T09:30:43.634Z,2.35
2023-03-04T09:33:12.057Z,2.83
2023-03-04T09:35:41.664Z,2.38
2023-03-04T09:38:10.300Z,2.80
2023-03-04T09:40:42.282Z,1.92
2023-03-04T09:43:16.266Z,2.20
2023-03-04T09:48:17.140Z,2.97
2023-03-04T09:51:03.764Z,3.60
2023-03-04T09:53:36.338Z,2.17
2023-03-04T09:56:05.374Z,2.15
2023-03-04T09:58:44.796Z,1.40
2023-03-04T10:01:21.142Z,1.63
2023-03-04T10:03:53.322Z,1.75
2023-03-04T10:06:24.488Z,1.85
2023-03-04T10:08:56.106Z,1.60
2023-03-04T10:11:27.035Z,1.88
2023-03-04T10:13:59.455Z,1.60
2023-03-04T10:16:32.323Z,1.70
2023-03-04T10:19:04.940Z,1.90
2023-03-04T10:21:37.321Z,1.75
2023-03-04T10:24:13.643Z,1.90
2023-03-04T10:26:44.005Z,1.75
2023-03-04T10:29:15.698Z,1.38
2023-03-04T10:31:43.965Z,1.50
2023-03-04T10:34:13.485Z,1.42
2023-03-04T10:36:51.467Z,1.70
2023-03-04T10:39:22.908Z,1.55
2023-03-04T10:41:57.741Z,1.45
2023-03-04T10:44:26.876Z,1.40
2023-03-04T10:46:56.950Z,1.40
2023-03-04T10:49:26.029Z,2.03
2023-03-04T10:51:57.693Z,2.03
2023-03-04T10:54:28.435Z,1.90
2023-03-04T10:57:01.939Z,2.30
2023-03-04T10:59:50.677Z,2.13
2023-03-04T11:02:23.172Z,1.83
2023-03-04T11:04:53.779Z,1.55
2023-03-04T11:07:43.555Z,2.28
2023-03-04T11:10:22.369Z,1.50
2023-03-04T11:12:51.982Z,1.80
2023-03-04T11:15:24.460Z,1.33
2023-03-04T11:17:55.724Z,1.65
2023-03-04T11:20:32.986Z,1.35
2023-03-04T11:23:06.579Z,1.60
2023-03-04T11:25:37.221Z,1.67
2023-03-04T11:28:20.229Z,1.60
2023-03-04T11:30:52.100Z,1.65
2023-03-04T11:33:28.055Z,1.38
2023-03-04T11:36:04.122Z,1.50
2023-03-04T11:38:38.065Z,1.50
2023-03-04T11:41:11.258Z,1.10
2023-03-04T11:43:41.378Z,1.40
2023-03-04T11:46:21.680Z,1.45
2023-03-04T11:48:54.509Z,1.70
2023-03-04T11:51:25.449Z,2.53
2023-03-04T11:54:04.247Z,1.50
2023-03-04T11:56:34.624Z,1.50
2023-03-04T11:59:45.354Z,1.50
2023-03-04T12:02:17.063Z,1.38
2023-03-04T12:05:16.299Z,1.50
2023-03-04T12:08:01.574Z,1.33
2023-03-04T12:10:37.028Z,1.80
2023-03-04T12:13:34.929Z,1.35
2023-03-04T12:16:17.282Z,1.60
2023-03-04T12:19:01.927Z,1.50
2023-03-04T12:21:43.466Z,1.50
2023-03-04T12:24:26.244Z,1.42
2023-03-04T12:26:58.081Z,1.48
2023-03-04T12:29:31.685Z,1.70
2023-03-04T12:32:05.766Z,2.25
2023-03-04T12:37:20.209Z,2.30
2023-03-04T12:39:55.321Z,2.85
2023-03-04T12:42:31.285Z,2.63
2023-03-04T12:45:10.492Z,3.08
2023-03-04T12:47:50.571Z,2.90
2023-03-04T12:50:44.313Z,2.60
2023-03-04T12:53:20.463Z,2.63
2023-03-04T12:55:51.287Z,2.05
2023-03-04T12:58:23.322Z,1.80
2023-03-04T13:00:59.989Z,2.25
2023-03-04T13:03:39.445Z,1.90
2023-03-04T13:06:16.481Z,2.42
2023-03-04T13:08:56.788Z,1.65
2023-03-04T13:11:52.713Z,1.80
2023-03-04T13:14:30.347Z,2.40
2023-03-04T13:17:01.791Z,1.80
2023-03-04T13:20:07.108Z,2.22
2023-03-04T13:22:43.978Z,1.90
2023-03-04T13:25:35.671Z,2.35
2023-03-04T13:28:23.037Z,2.22
2023-03-04T13:31:13.245Z,1.48
2023-03-04T13:34:04.570Z,1.85
2023-03-04T13:36:52.153Z,1.60
2023-03-04T13:39:34.337Z,2.33
2023-03-04T13:42:05.280Z,2.10
2023-03-04T13:44:57.317Z,2.35
2023-03-04T13:47:45.790Z,2.05
2023-03-04T13:50:37.452Z,2.50
2023-03-04T13:53:24.308Z,2.33
2023-03-04T13:56:21.540Z,2.13
2023-03-04T13:58:50.818Z,2.85
2023-03-04T14:01:26.282Z,2.65
2023-03-04T14:03:56.016Z,2.28
2023-03-04T14:06:26.100Z,3.45
2023-03-04T14:08:55.291Z,2.40
2023-03-04T14:11:28.278Z,3.00
2023-03-04T14:13:57.662Z,3.10
2023-03-04T14:16:28.855Z,3.13
2023-03-04T14:19:06.675Z,2.53
2023-03-04T14:21:35.112Z,1.80
2023-03-04T14:24:05.782Z,1.45
2023-03-04T14:26:34.698Z,1.83
2023-03-04T14:29:03.084Z,1.65
2023-03-04T14:31:32.693Z,1.50
2023-03-04T14:34:03.076Z,1.88
2023-03-04T14:36:34.333Z,1.60
2023-03-04T14:39:05.983Z,1.50
2023-03-04T14:41:35.897Z,1.60
2023-03-04T14:44:11.051Z,1.42
2023-03-04T14:46:41.924Z,1.55
2023-03-04T14:49:13.415Z,1.10
2023-03-04T14:51:46.870Z,1.05
2023-03-04T14:54:30.432Z,1.08
2023-03-04T14:56:59.190Z,1.17
2023-03-04T14:59:35.065Z,1.00
2023-03-04T15:02:31.003Z,0.90
2023-03-04T15:05:00.427Z,1.25
2023-03-04T15:07:33.548Z,1.23
2023-03-04T15:10:02.536Z,1.50
2023-03-04T15:12:32.149Z,2.38
2023-03-04T15:15:00.956Z,1.60
2023-03-04T15:17:37.577Z,1.35
2023-03-04T15:20:23.612Z,1.90
2023-03-04T15:23:07.256Z,1.50
2023-03-04T15:25:36.120Z,2.25
2023-03-04T15:28:04.653Z,2.28
2023-03-04T15:30:34.586Z,2.28
2023-03-04T15:33:03.118Z,1.55
2023-03-04T15:35:32.665Z,2.00
2023-03-04T15:38:01.996Z,1.95
2023-03-04T15:40:32.531Z,1.65
2023-03-04T15:43:02.445Z,2.58
2023-03-04T15:45:32.603Z,2.13
2023-03-04T15:48:00.781Z,1.65
2023-03-04T15:50:30.081Z,2.03
2023-03-04T15:53:02.064Z,1.88
2023-03-04T15:55:32.537Z,2.13
2023-03-04T15:58:01.477Z,1.85
2023-03-04T16:00:32.218Z,2.33
2023-03-04T16:03:00.424Z,2.03
2023-03-04T16:05:28.344Z,3.15
2023-03-04T16:07:56.379Z,1.88
2023-03-04T16:10:30.014Z,1.80
2023-03-04T16:12:59.700Z,1.88
2023-03-04T16:15:28.975Z,1.50
2023-03-04T16:17:57.568Z,2.03
2023-03-04T16:20:27.057Z,2.10
2023-03-04T16:22:57.780Z,1.88
2023-03-04T16:25:26.226Z,2.38
2023-03-04T16:27:56.549Z,2.13
2023-03-04T16:30:27.689Z,2.47
2023-03-04T16:32:56.017Z,2.42
2023-03-04T16:35:25.437Z,1.90
2023-03-04T16:37:53.905Z,2.17
2023-03-04T16:40:25.074Z,2.38
2023-03-04T16:42:53.589Z,1.45
2023-03-04T16:45:23.122Z,1.75
2023-03-04T16:47:53.126Z,2.10
2023-03-04T16:50:25.191Z,2.10
2023-03-04T16:52:53.998Z,1.85
2023-03-04T16:55:24.116Z,2.20
2023-03-04T16:57:53.520Z,1.85
2023-03-04T17:00:23.885Z,1.90
2023-03-04T17:02:55.831Z,1.90
2023-03-04T17:05:27.594Z,2.60
2023-03-04T17:07:55.840Z,2.08
2023-03-04T17:10:24.935Z,2.72
2023-03-04T17:12:53.007Z,2.40
2023-03-04T17:15:21.358Z,2.50
2023-03-04T17:17:49.509Z,2.67
2023-03-04T17:20:19.517Z,2.33
2023-03-04T17:22:49.858Z,2.13
2023-03-04T17:25:18.110Z,2.95
2023-03-04T17:27:46.803Z,2.97
2023-03-04T17:30:15.467Z,2.63
2023-03-04T17:32:44.228Z,2.40
2023-03-04T17:35:12.629Z,2.42
2023-03-04T17:37:42.119Z,2.47
2023-03-04T17:40:14.281Z,2.20
2023-03-04T17:42:42.353Z,2.67
2023-03-04T17:45:11.933Z,3.20
2023-03-04T17:47:40.241Z,2.47
2023-03-04T17:50:09.630Z,2.55
2023-03-04T17:52:37.937Z,2.28
2023-03-04T17:55:08.425Z,3.20
2023-03-04T17:57:37.699Z,2.72
2023-03-04T18:00:07.495Z,2.88
2023-03-04T18:02:35.495Z,2.67
2023-03-04T18:05:38.455Z,2.88
2023-03-04T18:08:06.543Z,2.50
2023-03-04T18:10:36.111Z,2.35
2023-03-04T18:13:04.306Z,2.63
2023-03-04T18:15:33.629Z,2.55
2023-03-04T18:18:01.974Z,3.05
2023-03-04T18:20:29.841Z,2.60
2023-03-04T18:22:58.717Z,3.00
2023-03-04T18:25:26.672Z,3.38
2023-03-04T18:27:55.984Z,2.35
2023-03-04T18:30:27.318Z,2.85
2023-03-04T18:32:56.134Z,2.85
2023-03-04T18:35:24.078Z,3.42
2023-03-04T18:37:52.133Z,3.13
2023-03-04T18:40:19.985Z,22.63
2023-03-04T18:42:48.017Z,34.90
2023-03-04T18:45:18.031Z,13.95
2023-03-04T18:47:48.322Z,9.25
2023-03-04T18:50:16.486Z,10.07
2023-03-04T18:52:47.640Z,6.30
2023-03-04T18:55:15.817Z,6.75
2023-03-04T18:57:47.040Z,3.75
2023-03-04T19:00:18.948Z,4.82
2023-03-04T19:02:49.491Z,4.75
2023-03-04T19:05:20.882Z,3.80
2023-03-04T19:07:48.933Z,3.63
2023-03-04T19:10:19.391Z,2.90
2023-03-04T19:12:47.678Z,3.63
2023-03-04T19:15:18.227Z,3.38
2023-03-04T19:17:46.471Z,3.42
2023-03-04T19:20:15.857Z,3.47
2023-03-04T19:22:44.272Z,2.95
2023-03-04T19:25:12.245Z,3.53
2023-03-04T19:27:40.412Z,4.63
2023-03-04T19:30:09.446Z,3.55
2023-03-04T19:32:38.740Z,3.97
2023-03-04T19:35:07.425Z,4.32
2023-03-04T19:37:35.198Z,3.88
2023-03-04T19:40:03.106Z,3.95
2023-03-04T19:42:31.047Z,3.78
2023-03-04T19:44:59.066Z,5.70
2023-03-04T19:47:27.079Z,6.32
2023-03-04T19:49:56.391Z,5.50
2023-03-04T19:52:24.457Z,3.97
2023-03-04T19:54:52.376Z,4.63
2023-03-04T19:57:20.742Z,4.25
2023-03-04T19:59:48.680Z,4.43
2023-03-04T20:02:16.783Z,3.75
2023-03-04T20:04:44.868Z,3.90
2023-03-04T20:07:14.278Z,3.42
2023-03-04T20:09:42.311Z,4.47
2023-03-04T20:12:10.535Z,3.08
2023-03-04T20:14:39.281Z,3.30
2023-03-04T20:17:08.014Z,3.58
2023-03-04T20:19:39.639Z,4.07
2023-03-04T20:22:08.975Z,3.58
2023-03-04T20:24:38.137Z,3.58
2023-03-04T20:27:06.114Z,4.10
2023-03-04T20:29:33.883Z,3.92
2023-03-04T20:32:01.795Z,3.25
2023-03-04T20:34:29.626Z,3.50
2023-03-04T20:36:59.899Z,3.65
2023-03-04T20:39:29.971Z,3.85
2023-03-04T20:42:00.065Z,3.28
2023-03-04T20:44:28.353Z,3.78
2023-03-04T20:46:56.451Z,3.88
2023-03-04T20:49:26.132Z,4.78
2023-03-04T20:51:56.174Z,4.10
2023-03-04T20:54:27.300Z,5.30
2023-03-04T20:56:55.160Z,5.18
2023-03-04T20:59:24.702Z,4.32
2023-03-04T21:01:53.164Z,4.28
2023-03-04T21:04:23.292Z,3.80
2023-03-04T21:06:51.814Z,3.30
2023-03-04T21:09:21.171Z,3.88
2023-03-04T21:11:49.676Z,4.18
2023-03-04T21:14:19.809Z,6.47
2023-03-04T21:16:50.017Z,5.63
2023-03-04T21:19:19.344Z,9.55
2023-03-04T21:21:48.564Z,9.80
2023-03-04T21:24:18.226Z,30.55
2023-03-04T21:26:47.730Z,21.98
2023-03-04T21:29:17.412Z,39.80
2023-03-04T21:31:47.206Z,71.57
2023-03-04T21:34:19.027Z,44.28
2023-03-04T21:36:47.244Z,48.55
2023-03-04T21:39:17.540Z,23.85
2023-03-04T21:41:45.849Z,19.40
2023-03-04T21:44:22.892Z,14.20
2023-03-04T21:46:56.296Z,5.55
2023-03-04T21:49:25.631Z,4.97
2023-03-04T21:51:53.584Z,8.23
2023-03-04T21:54:21.514Z,6.38
2023-03-04T21:56:50.614Z,5.00
2023-03-04T21:59:18.703Z,4.10
2023-03-04T22:01:47.255Z,4.03
2023-03-04T22:04:15.061Z,4.25
2023-03-04T22:06:44.428Z,3.40
2023-03-04T22:09:13.282Z,3.22
2023-03-04T22:11:41.262Z,3.03
2023-03-04T22:14:09.176Z,3.25
2023-03-04T22:16:48.951Z,3.10
2023-03-04T22:19:22.253Z,3.20
2023-03-04T22:21:52.351Z,3.00
2023-03-04T22:24:21.040Z,3.85
2023-03-04T22:26:48.877Z,4.05
2023-03-04T22:29:16.747Z,3.72
2023-03-04T22:31:44.769Z,3.47
2023-03-04T22:34:14.715Z,3.22
2023-03-04T22:36:44.136Z,4.10
2023-03-04T22:39:14.952Z,3.78
2023-03-04T22:41:43.684Z,3.80
2023-03-04T22:44:11.620Z,3.47
2023-03-04T22:46:40.533Z,3.72
2023-03-04T22:49:10.466Z,3.70
2023-03-04T22:51:41.109Z,3.45
2023-03-04T22:54:09.068Z,3.50
2023-03-04T22:56:39.248Z,4.22
2023-03-04T22:59:07.342Z,4.05
2023-03-04T23:01:35.166Z,3.80
2023-03-04T23:04:03.643Z,3.97
2023-03-04T23:06:31.617Z,3.35
2023-03-04T23:09:00.165Z,2.90
2023-03-04T23:11:30.287Z,3.15
2023-03-04T23:14:02.251Z,2.85
2023-03-04T23:16:30.266Z,3.47
2023-03-04T23:18:59.537Z,3.33
2023-03-04T23:21:28.409Z,4.20
2023-03-04T23:23:56.714Z,3.88
2023-03-04T23:26:26.715Z,4.95
2023-03-04T23:28:56.027Z,4.20
2023-03-04T23:31:25.664Z,3.92
2023-03-04T23:33:57.393Z,4.00
2023-03-04T23:36:26.908Z,3.85
2023-03-04T23:38:55.136Z,3.50
2023-03-04T23:41:26.512Z,3.28
2023-03-04T23:43:55.789Z,2.80
2023-03-04T23:46:26.302Z,3.17
2023-03-04T23:48:54.963Z,3.78
2023-03-04T23:51:24.784Z,3.30
2023-03-04T23:53:52.940Z,5.10
2023-03-04T23:56:22.578Z,4.32
2023-03-04T23:58:50.897Z,2.95
